Date,TemperatureHighF,TemperatureAvgF,TemperatureLowF,DewpointHighF,DewpointAvgF,DewpointLowF,HumidityHigh,HumidityAvg,HumidityLow,PressureMaxIn,PressureMinIn,WindSpeedMaxMPH,WindSpeedAvgMPH,GustSpeedMaxMPH,PrecipitationSumIn
2013-2-1,43.7,39.7,31.9,30.4,21.0,11.7,63,48,30,30.26,29.82,0,0,0,0.00
2013-2-2,48.8,38.6,27.7,32.7,21.3,15.5,65,51,38,30.27,29.94,0,0,0,0.00
2013-2-3,55.8,44.9,35.5,36.6,30.8,24.5,79,59,39,29.94,29.75,0,0,0,0.00
2013-2-4,52.7,41.8,30.8,32.4,27.7,22.5,73,58,44,30.03,29.90,0,0,0,0.00
2013-2-5,65.7,51.0,38.5,45.3,36.7,28.4,71,59,46,29.90,29.77,0,0,0,0.00
2013-2-6,65.2,50.1,37.8,41.9,35.1,30.9,83,59,33,30.12,29.88,0,0,0,0.00
2013-2-7,48.2,45.2,42.1,38.8,34.9,30.3,84,68,51,30.17,29.86,0,0,0,0.00
2013-2-8,61.2,48.6,41.2,49.8,40.2,31.9,84,73,58,29.99,29.75,0,0,0,0.00
2013-2-9,58.1,45.0,32.8,38.2,29.1,21.0,80,57,29,30.23,29.99,0,0,0,0.00
2013-2-10,58.7,47.6,35.6,45.1,33.6,27.2,77,60,36,30.34,30.09,0,0,0,0.00
2013-2-11,61.7,57.8,51.8,58.1,53.2,44.9,89,84,77,30.09,29.84,0,0,0,0.00
2013-2-12,62.6,54.6,46.6,49.6,43.2,37.4,88,68,43,30.00,29.81,0,0,0,0.00
2013-2-13,50.6,48.6,42.7,46.6,43.9,37.2,87,84,80,29.85,29.55,0,0,0,0.00
2013-2-14,54.4,43.7,34.4,41.9,36.2,30.0,89,76,61,29.96,29.77,0,0,0,0.00
2013-2-15,60.8,46.5,34.4,44.2,35.4,29.3,82,67,45,29.97,29.82,0,0,0,0.00
2013-2-16,50.0,40.1,32.0,37.2,32.1,26.3,80,73,61,29.89,29.72,0,0,0,0.00
2013-2-17,42.7,32.8,25.6,29.8,24.6,20.0,81,72,52,30.15,29.89,0,0,0,0.00
2013-2-18,61.2,41.0,26.1,42.4,28.0,19.6,81,62,44,30.27,30.11,0,0,0,0.00
2013-2-19,49.7,43.0,38.2,44.3,35.5,27.3,84,75,58,30.12,29.78,0,0,0,0.00
2013-2-20,55.6,40.4,31.0,34.9,29.7,25.2,83,67,40,30.01,29.91,0,0,0,0.00
2013-2-21,61.0,45.3,31.3,39.7,28.4,23.5,75,54,33,30.15,29.98,0,0,0,0.00
2013-2-22,49.1,41.4,39.6,35.8,34.3,30.8,83,76,52,30.20,29.99,0,0,0,0.00
2013-2-23,46.1,42.5,39.2,42.3,38.4,34.8,87,85,82,30.03,29.73,0,0,0,0.00
2013-2-24,65.3,58.4,45.7,47.9,43.7,37.4,88,60,40,29.88,29.75,0,0,0,0.00
2013-2-25,44.6,42.9,40.9,35.6,29.5,26.7,73,59,56,30.08,29.91,0,0,0,0.00
2013-2-26,48.6,41.0,36.2,45.1,34.7,26.7,88,79,57,29.97,29.47,0,0,0,0.00
2013-2-27,59.6,48.8,37.8,44.8,39.9,33.9,89,72,57,29.71,29.56,0,0,0,0.00
2013-2-28,47.2,41.3,37.3,36.8,32.8,29.0,80,72,53,29.77,29.62,0,0,0,0.00